Middlesex, Vermont
Current Conditions -  °F | °C
As of 11:51 PM on Friday 24 Oct 2014 (Local Time) from KMPV Reporting Station
Clear Clear  
Wind Chill: 31°   Ceiling: Unl
Heat Index: 36°   Visibility: 10mi
Dew Point: 34°   Wind: 6mph
Humidity: 93%   Direction: 170°S
Pressure: 29.84"   Gusts: NA
Location:  44.2861°N, 72.6004°W
Report Text: KMPV 250351Z AUTO 17005KT 10SM CLR 02/01 A2984 RMK AO2 SLP114 T00220011 $
Loading
Personal Weather Stations






























Interactive Weather Map
Tropical Storm Tracking
New forecast layout! Learn more

10-Day Weather Forecast

Advertisements
Track Severe Weather on mobile